createdAt,value
2023-02-27T00:00:50.038Z,55
2023-02-27T00:01:45.194Z,55
2023-02-27T00:02:37.830Z,55
2023-02-27T00:03:33.965Z,55
2023-02-27T00:04:24.479Z,55
2023-02-27T00:05:59.132Z,55
2023-02-27T00:06:42.309Z,56
2023-02-27T00:07:39.176Z,55
2023-02-27T00:08:21.731Z,56
2023-02-27T00:09:36.701Z,55
2023-02-27T00:10:34.510Z,55
2023-02-27T00:11:30.958Z,55
2023-02-27T00:13:44.950Z,55
2023-02-27T00:14:26.932Z,55
2023-02-27T00:15:41.166Z,55
2023-02-27T00:16:43.215Z,55
2023-02-27T00:17:39.366Z,56
2023-02-27T00:18:26.167Z,55
2023-02-27T00:19:24.773Z,55
2023-02-27T00:20:31.738Z,55
2023-02-27T00:21:32.348Z,55
2023-02-27T00:22:58.405Z,55
2023-02-27T00:23:47.208Z,55
2023-02-27T00:24:44.271Z,56
2023-02-27T00:26:26.341Z,55
2023-02-27T00:27:23.714Z,55
2023-02-27T00:28:36.680Z,55
2023-02-27T00:29:23.589Z,55
2023-02-27T00:30:51.859Z,55
2023-02-27T00:31:28.833Z,55
2023-02-27T00:33:28.762Z,55
2023-02-27T00:34:27.053Z,55
2023-02-27T00:35:39.982Z,55
2023-02-27T00:36:25.191Z,55
2023-02-27T00:37:31.936Z,55
2023-02-27T00:38:47.763Z,55
2023-02-27T00:39:34.835Z,55
2023-02-27T00:40:21.601Z,55
2023-02-27T00:41:26.191Z,55
2023-02-27T00:42:23.737Z,55
2023-02-27T00:43:28.022Z,55
2023-02-27T00:45:51.632Z,55
2023-02-27T00:47:37.308Z,55
2023-02-27T00:48:29.627Z,55
2023-02-27T00:49:24.149Z,55
2023-02-27T00:50:20.594Z,55
2023-02-27T00:52:03.212Z,55
2023-02-27T00:52:56.230Z,55
2023-02-27T00:53:21.226Z,55
2023-02-27T00:54:27.717Z,55
2023-02-27T00:55:33.561Z,55
2023-02-27T00:56:28.418Z,55
2023-02-27T00:57:20.054Z,55
2023-02-27T00:58:23.401Z,55
2023-02-27T01:00:40.290Z,55
2023-02-27T01:01:30.841Z,55
2023-02-27T01:04:28.608Z,55
2023-02-27T01:05:24.205Z,55
2023-02-27T01:06:45.504Z,55
2023-02-27T01:07:46.472Z,55
2023-02-27T01:08:34.346Z,55
2023-02-27T01:09:19.607Z,55
2023-02-27T01:10:25.046Z,55
2023-02-27T01:11:30.047Z,56
2023-02-27T01:12:22.874Z,55
2023-02-27T01:14:03.856Z,55
2023-02-27T01:14:49.933Z,55
2023-02-27T01:15:37.126Z,55
2023-02-27T01:16:25.416Z,55
2023-02-27T01:17:42.305Z,55
2023-02-27T01:18:33.793Z,55
2023-02-27T01:19:27.900Z,56
2023-02-27T01:20:23.307Z,56
2023-02-27T01:21:19.948Z,55
2023-02-27T01:22:34.962Z,55
2023-02-27T01:23:27.162Z,55
2023-02-27T01:24:44.443Z,55
2023-02-27T01:25:38.125Z,55
2023-02-27T01:26:28.411Z,55
2023-02-27T01:29:42.615Z,55
2023-02-27T01:30:29.577Z,55
2023-02-27T01:31:48.448Z,55
2023-02-27T01:32:42.042Z,55
2023-02-27T01:33:35.198Z,55
2023-02-27T01:34:28.298Z,55
2023-02-27T01:35:24.563Z,55
2023-02-27T01:36:46.338Z,55
2023-02-27T01:37:32.970Z,55
2023-02-27T01:38:23.012Z,56
2023-02-27T01:39:35.719Z,56
2023-02-27T01:40:41.234Z,56
2023-02-27T01:42:23.040Z,56
2023-02-27T01:43:23.500Z,56
2023-02-27T01:44:28.171Z,56
2023-02-27T01:45:23.317Z,55
2023-02-27T01:46:48.858Z,56
2023-02-27T01:47:44.492Z,56
2023-02-27T01:48:30.713Z,55
2023-02-27T01:50:19.705Z,56
2023-02-27T01:51:39.082Z,56
2023-02-27T01:52:23.936Z,56
2023-02-27T01:53:53.008Z,56
2023-02-27T01:54:46.865Z,56
2023-02-27T01:55:24.843Z,56
2023-02-27T01:56:21.718Z,56
2023-02-27T01:57:23.692Z,55
2023-02-27T01:58:24.746Z,56
2023-02-27T01:59:28.283Z,56
2023-02-27T02:00:59.993Z,56
2023-02-27T02:09:40.326Z,55
2023-02-27T02:18:33.699Z,56
2023-02-27T02:19:30.948Z,56
2023-02-27T02:20:24.345Z,56
2023-02-27T02:21:23.183Z,56
2023-02-27T02:23:02.657Z,56
2023-02-27T02:23:22.080Z,56
2023-02-27T02:24:33.142Z,56
2023-02-27T02:25:39.817Z,56
2023-02-27T02:26:34.124Z,56
2023-02-27T02:27:26.998Z,56
2023-02-27T02:28:26.244Z,56
2023-02-27T02:29:28.265Z,56
2023-02-27T02:30:43.613Z,56
2023-02-27T02:31:36.671Z,56
2023-02-27T02:32:23.534Z,56
2023-02-27T02:33:36.989Z,56
2023-02-27T02:34:21.727Z,56
2023-02-27T02:35:24.317Z,56
2023-02-27T02:36:23.624Z,56
2023-02-27T02:37:51.424Z,56
2023-02-27T02:38:39.401Z,56
2023-02-27T02:39:24.737Z,56
2023-02-27T02:40:26.164Z,57
2023-02-27T02:41:35.379Z,57
2023-02-27T02:42:28.764Z,56
2023-02-27T02:43:21.192Z,57
2023-02-27T02:44:23.338Z,56
2023-02-27T02:45:41.924Z,56
2023-02-27T02:46:30.503Z,57
2023-02-27T02:47:45.969Z,57
2023-02-27T02:48:39.208Z,56
2023-02-27T02:50:24.901Z,57
2023-02-27T02:51:24.751Z,56
2023-02-27T02:52:36.141Z,57
2023-02-27T02:53:36.568Z,57
2023-02-27T02:54:49.861Z,57
2023-02-27T02:55:42.760Z,57
2023-02-27T02:56:34.752Z,57
2023-02-27T02:57:27.636Z,57
2023-02-27T02:58:22.535Z,57
2023-02-27T02:59:22.300Z,57
2023-02-27T03:01:00.873Z,58
2023-02-27T03:01:22.460Z,58
2023-02-27T03:02:46.640Z,57
2023-02-27T03:03:33.233Z,57
2023-02-27T03:04:29.744Z,57
2023-02-27T03:05:24.363Z,57
2023-02-27T03:06:26.254Z,57
2023-02-27T03:07:23.159Z,57
2023-02-27T03:08:58.246Z,57
2023-02-27T03:09:37.796Z,58
2023-02-27T03:10:46.119Z,58
2023-02-27T03:11:32.894Z,58
2023-02-27T03:12:28.883Z,57
2023-02-27T03:13:21.752Z,57
2023-02-27T03:14:23.396Z,58
2023-02-27T03:15:26.267Z,57
2023-02-27T03:16:56.450Z,58
2023-02-27T03:17:48.835Z,57
2023-02-27T03:18:36.087Z,57
2023-02-27T03:19:25.213Z,58
2023-02-27T03:20:25.925Z,58
2023-02-27T03:21:30.241Z,58
2023-02-27T03:22:22.864Z,58
2023-02-27T03:23:59.431Z,58
2023-02-27T03:24:52.862Z,58
2023-02-27T03:25:27.761Z,58
2023-02-27T03:26:26.151Z,58
2023-02-27T03:27:30.058Z,58
2023-02-27T03:28:25.739Z,58
2023-02-27T03:29:26.292Z,58
2023-02-27T03:30:19.145Z,58
2023-02-27T03:32:42.540Z,58
2023-02-27T03:33:29.049Z,58
2023-02-27T03:34:33.492Z,58
2023-02-27T03:35:26.310Z,59
2023-02-27T03:36:20.754Z,59
2023-02-27T03:37:24.666Z,59
2023-02-27T03:38:49.325Z,59
2023-02-27T03:39:45.278Z,59
2023-02-27T03:40:32.598Z,59
2023-02-27T03:41:37.846Z,59
2023-02-27T03:42:29.656Z,59
2023-02-27T03:43:25.457Z,59
2023-02-27T03:44:26.852Z,59
2023-02-27T03:45:19.846Z,59
2023-02-27T03:46:47.729Z,59
2023-02-27T03:47:21.597Z,59
2023-02-27T03:48:20.559Z,59
2023-02-27T03:49:34.590Z,59
2023-02-27T03:50:29.191Z,59
2023-02-27T03:51:22.117Z,60
2023-02-27T03:52:23.748Z,60
2023-02-27T03:53:24.937Z,59
2023-02-27T03:54:39.165Z,59
2023-02-27T03:56:40.537Z,59
2023-02-27T03:57:33.752Z,60
2023-02-27T03:59:29.248Z,59
2023-02-27T04:01:39.514Z,60
2023-02-27T04:02:26.504Z,59
2023-02-27T04:03:44.818Z,60
2023-02-27T04:04:24.642Z,60
2023-02-27T04:05:30.282Z,60
2023-02-27T04:06:34.231Z,59
2023-02-27T04:07:25.792Z,60
2023-02-27T04:08:43.946Z,60
2023-02-27T04:09:29.797Z,60
2023-02-27T04:10:27.751Z,60
2023-02-27T04:12:34.467Z,60
2023-02-27T04:13:27.480Z,60
2023-02-27T04:14:29.701Z,60
2023-02-27T04:15:22.504Z,60
2023-02-27T04:16:33.799Z,60
2023-02-27T04:17:22.136Z,60
2023-02-27T04:18:46.313Z,60
2023-02-27T04:19:39.119Z,60
2023-02-27T04:20:30.659Z,60
2023-02-27T04:21:23.870Z,60
2023-02-27T04:22:27.046Z,60
2023-02-27T04:23:22.260Z,60
2023-02-27T04:24:23.697Z,60
2023-02-27T04:25:48.822Z,60
2023-02-27T04:26:43.597Z,61
2023-02-27T04:27:35.294Z,61
2023-02-27T04:28:26.791Z,60
2023-02-27T04:29:21.702Z,61
2023-02-27T04:30:24.327Z,62
2023-02-27T04:31:26.146Z,61
2023-02-27T04:32:21.021Z,61
2023-02-27T04:33:47.838Z,61
2023-02-27T04:34:36.026Z,61
2023-02-27T04:35:21.637Z,61
2023-02-27T04:36:35.504Z,61
2023-02-27T04:37:30.315Z,61
2023-02-27T04:38:25.676Z,61
2023-02-27T04:39:40.142Z,61
2023-02-27T04:40:53.912Z,62
2023-02-27T04:41:37.855Z,61
2023-02-27T04:42:35.701Z,61
2023-02-27T04:43:39.400Z,61
2023-02-27T04:44:20.293Z,61
2023-02-27T04:45:25.354Z,61
2023-02-27T04:46:57.827Z,61
2023-02-27T04:47:53.783Z,61
2023-02-27T04:48:40.620Z,61
2023-02-27T04:49:24.923Z,61
2023-02-27T04:50:33.448Z,61
2023-02-27T04:51:27.324Z,61
2023-02-27T04:52:29.416Z,61
2023-02-27T04:53:24.613Z,61
2023-02-27T04:54:58.902Z,61
2023-02-27T04:55:28.838Z,61
2023-02-27T04:56:29.631Z,61
2023-02-27T04:58:31.137Z,61
2023-02-27T04:59:24.216Z,61
2023-02-27T05:00:19.536Z,62
2023-02-27T05:01:20.952Z,62
2023-02-27T05:02:47.034Z,62
2023-02-27T05:03:34.554Z,62
2023-02-27T05:04:21.035Z,62
2023-02-27T05:05:34.601Z,62
2023-02-27T05:06:21.074Z,61
2023-02-27T05:07:28.327Z,61
2023-02-27T05:08:24.886Z,61
2023-02-27T05:09:50.100Z,62
2023-02-27T05:10:37.045Z,62
2023-02-27T05:11:23.946Z,62
2023-02-27T05:13:30.592Z,62
2023-02-27T05:14:25.646Z,62
2023-02-27T05:15:29.697Z,62
2023-02-27T05:16:53.903Z,62
2023-02-27T05:17:25.762Z,62
2023-02-27T05:18:28.035Z,62
2023-02-27T05:19:38.931Z,62
2023-02-27T05:20:35.194Z,62
2023-02-27T05:21:28.448Z,62
2023-02-27T05:22:20.631Z,62
2023-02-27T05:23:26.780Z,63
2023-02-27T05:24:43.432Z,63
2023-02-27T05:25:29.225Z,63
2023-02-27T05:26:45.948Z,62
2023-02-27T05:27:39.496Z,62
2023-02-27T05:28:32.034Z,63
2023-02-27T05:29:31.570Z,63
2023-02-27T05:30:30.377Z,62
2023-02-27T05:31:25.723Z,62
2023-02-27T05:32:33.660Z,62
2023-02-27T05:33:50.376Z,62
2023-02-27T05:34:43.154Z,63
2023-02-27T05:35:38.360Z,63
2023-02-27T05:36:27.828Z,63
2023-02-27T05:37:22.085Z,63
2023-02-27T05:38:27.664Z,63
2023-02-27T05:39:21.765Z,63
2023-02-27T05:40:21.855Z,63
2023-02-27T05:41:35.104Z,63
2023-02-27T05:42:40.018Z,63
2023-02-27T05:44:25.310Z,63
2023-02-27T05:45:23.772Z,63
2023-02-27T05:46:26.193Z,62
2023-02-27T05:47:25.008Z,63
2023-02-27T05:48:51.341Z,63
2023-02-27T05:49:47.260Z,63
2023-02-27T05:50:26.910Z,63
2023-02-27T05:51:20.843Z,64
2023-02-27T05:52:22.632Z,64
2023-02-27T05:53:28.404Z,63
2023-02-27T05:55:54.496Z,63
2023-02-27T05:56:50.337Z,63
2023-02-27T05:57:27.252Z,64
2023-02-27T05:58:32.679Z,64
2023-02-27T05:59:25.399Z,64
2023-02-27T06:00:29.134Z,64
2023-02-27T06:01:26.021Z,63
2023-02-27T06:02:24.485Z,63
2023-02-27T06:03:32.431Z,64
2023-02-27T06:04:41.428Z,64
2023-02-27T06:05:27.321Z,64
2023-02-27T06:06:29.937Z,63
2023-02-27T06:07:23.043Z,64
2023-02-27T06:08:29.003Z,64
2023-02-27T06:09:23.328Z,64
2023-02-27T06:10:56.868Z,64
2023-02-27T06:11:43.424Z,64
2023-02-27T06:12:30.078Z,64
2023-02-27T06:13:19.254Z,64
2023-02-27T06:14:28.033Z,65
2023-02-27T06:15:24.565Z,65
2023-02-27T06:16:24.699Z,65
2023-02-27T06:17:21.981Z,65
2023-02-27T06:18:46.444Z,65
2023-02-27T06:19:26.166Z,65
2023-02-27T06:20:38.982Z,65
2023-02-27T06:21:30.193Z,65
2023-02-27T06:22:23.580Z,65
2023-02-27T06:23:21.978Z,65
2023-02-27T06:24:26.589Z,65
2023-02-27T06:25:30.456Z,65
2023-02-27T06:26:34.400Z,66
2023-02-27T06:27:23.810Z,66
2023-02-27T06:28:36.934Z,66
2023-02-27T06:29:27.630Z,66
2023-02-27T06:30:21.803Z,65
2023-02-27T06:31:28.939Z,65
2023-02-27T06:32:22.857Z,65
2023-02-27T06:33:39.895Z,65
2023-02-27T06:34:26.069Z,65
2023-02-27T06:35:40.722Z,65
2023-02-27T06:36:28.500Z,65
2023-02-27T06:37:25.805Z,67
2023-02-27T06:39:26.282Z,65
2023-02-27T06:40:42.858Z,65
2023-02-27T06:41:27.639Z,65
2023-02-27T06:42:32.174Z,65
2023-02-27T06:43:38.074Z,65
2023-02-27T06:44:29.882Z,65
2023-02-27T06:45:25.043Z,65
2023-02-27T06:46:30.543Z,65
2023-02-27T06:47:37.861Z,65
2023-02-27T06:48:31.135Z,65
2023-02-27T06:49:48.318Z,65
2023-02-27T06:50:41.031Z,65
2023-02-27T06:51:24.305Z,66
2023-02-27T06:52:25.623Z,65
2023-02-27T06:53:28.981Z,65
2023-02-27T06:54:27.567Z,65
2023-02-27T06:55:23.779Z,65
2023-02-27T06:56:23.214Z,65
2023-02-27T06:57:45.450Z,65
2023-02-27T06:58:22.131Z,65
2023-02-27T06:59:30.809Z,66
2023-02-27T07:00:22.215Z,66
2023-02-27T07:01:33.727Z,66
2023-02-27T07:02:25.591Z,66
2023-02-27T07:03:23.918Z,66
2023-02-27T07:04:26.601Z,65
2023-02-27T07:05:42.429Z,65
2023-02-27T07:07:34.573Z,67
2023-02-27T07:07:41.282Z,67
2023-02-27T07:07:41.493Z,66
2023-02-27T07:08:19.429Z,66
2023-02-27T07:09:29.299Z,68
2023-02-27T07:10:23.977Z,67
2023-02-27T07:11:44.968Z,67
2023-02-27T07:12:46.481Z,66
2023-02-27T07:13:39.402Z,65
2023-02-27T07:14:24.138Z,65
2023-02-27T07:15:25.611Z,64
2023-02-27T07:16:36.985Z,65
2023-02-27T07:17:26.693Z,64
2023-02-27T07:18:19.331Z,64
2023-02-27T07:19:52.420Z,64
2023-02-27T07:20:39.303Z,64
2023-02-27T07:21:29.475Z,64
2023-02-27T07:22:28.355Z,64
2023-02-27T07:23:23.692Z,64
2023-02-27T07:26:20.291Z,63
2023-02-27T07:27:33.601Z,64
2023-02-27T07:28:28.109Z,64
2023-02-27T07:29:31.701Z,63
2023-02-27T07:30:25.984Z,63
2023-02-27T07:31:35.467Z,63
2023-02-27T07:32:24.470Z,64
2023-02-27T07:33:24.487Z,63
2023-02-27T07:34:51.525Z,63
2023-02-27T07:35:32.726Z,63
2023-02-27T07:36:37.912Z,63
2023-02-27T07:37:28.358Z,63
2023-02-27T07:38:26.200Z,63
2023-02-27T07:39:25.749Z,63
2023-02-27T07:40:25.274Z,63
2023-02-27T07:41:48.509Z,63
2023-02-27T07:43:21.451Z,63
2023-02-27T07:44:35.612Z,63
2023-02-27T07:45:27.325Z,63
2023-02-27T07:46:29.283Z,63
2023-02-27T07:47:29.489Z,63
2023-02-27T07:48:23.700Z,63
2023-02-27T07:49:28.406Z,62
2023-02-27T07:50:41.289Z,62
2023-02-27T07:51:36.563Z,62
2023-02-27T07:52:31.996Z,62
2023-02-27T07:53:22.776Z,62
2023-02-27T07:54:35.335Z,62
2023-02-27T07:55:26.573Z,62
2023-02-27T07:56:19.492Z,63
2023-02-27T07:57:29.350Z,63
2023-02-27T07:58:41.390Z,63
2023-02-27T07:59:34.479Z,63
2023-02-27T08:00:24.374Z,63
2023-02-27T08:01:24.790Z,63
2023-02-27T08:02:30.795Z,63
2023-02-27T08:03:26.509Z,63
2023-02-27T08:04:32.373Z,63
2023-02-27T08:06:30.119Z,62
2023-02-27T08:07:32.533Z,63
2023-02-27T08:08:26.483Z,62
2023-02-27T08:09:35.840Z,62
2023-02-27T08:11:23.784Z,61
2023-02-27T08:13:59.721Z,61
2023-02-27T08:14:36.789Z,61
2023-02-27T08:15:29.794Z,61
2023-02-27T08:16:22.484Z,61
2023-02-27T08:17:25.278Z,61
2023-02-27T08:19:24.638Z,62
2023-02-27T08:20:47.119Z,61
2023-02-27T08:21:40.491Z,61
2023-02-27T08:22:31.419Z,61
2023-02-27T08:24:38.599Z,61
2023-02-27T08:25:29.745Z,61
2023-02-27T08:26:26.543Z,60
2023-02-27T08:27:51.027Z,60
2023-02-27T08:28:24.692Z,60
2023-02-27T08:29:38.685Z,60
2023-02-27T08:30:22.395Z,60
2023-02-27T08:32:33.372Z,60
2023-02-27T08:33:28.665Z,60
2023-02-27T08:34:20.167Z,60
2023-02-27T08:35:41.769Z,59
2023-02-27T08:36:41.859Z,60
2023-02-27T08:37:25.940Z,59
2023-02-27T08:38:26.425Z,59
2023-02-27T08:39:38.300Z,60
2023-02-27T08:40:32.256Z,60
2023-02-27T08:42:53.855Z,59
2023-02-27T08:43:41.097Z,59
2023-02-27T08:44:26.878Z,59
2023-02-27T08:45:24.353Z,59
2023-02-27T08:46:22.544Z,59
2023-02-27T08:47:35.185Z,59
2023-02-27T08:48:26.273Z,59
2023-02-27T08:49:23.192Z,59
2023-02-27T08:50:44.737Z,58
2023-02-27T08:51:30.935Z,58
2023-02-27T08:52:34.716Z,58
2023-02-27T08:53:26.686Z,58
2023-02-27T08:54:21.569Z,58
2023-02-27T08:55:25.181Z,58
2023-02-27T08:56:25.889Z,58
2023-02-27T08:57:35.389Z,57
2023-02-27T08:58:34.348Z,57
2023-02-27T08:59:22.621Z,57
2023-02-27T09:00:32.998Z,57
2023-02-27T09:01:23.284Z,57
2023-02-27T09:02:26.336Z,57
2023-02-27T09:03:29.265Z,57
2023-02-27T09:04:23.782Z,57
2023-02-27T09:05:37.290Z,57
2023-02-27T09:06:26.257Z,57
2023-02-27T09:07:34.688Z,57
2023-02-27T09:09:22.163Z,57
2023-02-27T09:10:34.265Z,57
2023-02-27T09:11:27.660Z,58
2023-02-27T09:12:19.809Z,57
2023-02-27T09:13:22.855Z,57
2023-02-27T09:14:41.214Z,57
2023-02-27T09:15:33.173Z,57
2023-02-27T09:16:27.184Z,57
2023-02-27T09:17:22.364Z,57
2023-02-27T09:18:31.024Z,57
2023-02-27T09:19:23.906Z,56
2023-02-27T09:21:43.773Z,56
2023-02-27T09:22:38.111Z,55
2023-02-27T09:23:28.898Z,54
2023-02-27T09:24:24.432Z,54
2023-02-27T09:25:35.233Z,55
2023-02-27T09:26:42.233Z,54
2023-02-27T09:27:23.604Z,54
2023-02-27T09:28:48.099Z,54
2023-02-27T09:29:41.061Z,54
2023-02-27T09:30:26.504Z,54
2023-02-27T09:31:31.294Z,54
2023-02-27T09:32:40.236Z,55
2023-02-27T09:33:34.141Z,54
2023-02-27T09:34:25.576Z,54
2023-02-27T09:35:52.041Z,54
2023-02-27T09:36:30.414Z,54
2023-02-27T09:37:38.079Z,53
2023-02-27T09:38:29.875Z,53
2023-02-27T09:39:46.000Z,53
2023-02-27T09:40:38.478Z,53
2023-02-27T09:41:23.107Z,53
2023-02-27T09:42:25.224Z,53
2023-02-27T09:43:48.999Z,53
2023-02-27T09:44:47.306Z,52
2023-02-27T09:45:35.314Z,52
2023-02-27T09:47:21.103Z,52
2023-02-27T09:48:36.268Z,52
2023-02-27T09:49:28.669Z,52
2023-02-27T09:50:20.724Z,52
2023-02-27T09:51:47.260Z,52
2023-02-27T09:52:37.315Z,51
2023-02-27T09:53:23.226Z,52
2023-02-27T09:54:23.542Z,51
2023-02-27T09:55:38.512Z,51
2023-02-27T09:56:33.072Z,50
2023-02-27T09:57:23.990Z,50
2023-02-27T09:58:24.183Z,50
2023-02-27T09:59:43.706Z,50
2023-02-27T10:00:27.829Z,49
2023-02-27T10:01:30.212Z,47
2023-02-27T10:02:20.538Z,48
2023-02-27T10:03:35.665Z,47
2023-02-27T10:04:21.305Z,48
2023-02-27T10:05:24.400Z,47
2023-02-27T10:06:42.310Z,48
2023-02-27T10:07:30.137Z,47
2023-02-27T10:08:33.015Z,46
2023-02-27T10:09:21.657Z,46
2023-02-27T10:10:39.700Z,46
2023-02-27T10:11:24.580Z,45
2023-02-27T10:12:28.360Z,45
2023-02-27T10:13:46.474Z,46
2023-02-27T10:14:33.078Z,45
2023-02-27T10:15:26.678Z,45
2023-02-27T10:16:28.865Z,46
2023-02-27T10:17:24.887Z,45
2023-02-27T10:18:30.652Z,46
2023-02-27T10:19:31.409Z,44
2023-02-27T10:20:23.238Z,43
2023-02-27T10:21:33.094Z,43
2023-02-27T10:22:22.432Z,43
2023-02-27T10:23:33.689Z,43
2023-02-27T10:24:26.187Z,43
2023-02-27T10:25:32.009Z,43
2023-02-27T10:26:25.077Z,43
2023-02-27T10:27:27.341Z,43
2023-02-27T10:28:22.134Z,43
2023-02-27T10:30:38.064Z,44
2023-02-27T10:31:30.147Z,45
2023-02-27T10:32:24.780Z,43
2023-02-27T10:33:20.248Z,42
2023-02-27T10:34:31.498Z,43
2023-02-27T10:35:25.625Z,44
2023-02-27T10:36:33.980Z,43
2023-02-27T10:37:19.953Z,43
2023-02-27T10:38:33.711Z,42
2023-02-27T10:39:27.212Z,42
2023-02-27T10:40:20.887Z,42
2023-02-27T10:41:36.776Z,40
2023-02-27T10:42:19.905Z,42
2023-02-27T10:43:26.738Z,42
2023-02-27T10:44:38.120Z,42
2023-02-27T10:45:39.079Z,41
2023-02-27T10:46:32.683Z,42
2023-02-27T10:47:25.801Z,41
2023-02-27T10:48:24.192Z,41
2023-02-27T10:49:30.666Z,42
2023-02-27T10:50:27.318Z,42
2023-02-27T10:51:25.361Z,41
2023-02-27T10:52:43.270Z,40
2023-02-27T10:53:36.167Z,41
2023-02-27T10:54:24.743Z,40
2023-02-27T10:56:38.926Z,40
2023-02-27T10:57:30.713Z,41
2023-02-27T10:58:25.881Z,41
2023-02-27T10:59:23.654Z,41
2023-02-27T11:00:27.111Z,41
2023-02-27T11:01:29.181Z,40
2023-02-27T11:03:19.687Z,39
2023-02-27T11:04:31.079Z,40
2023-02-27T11:05:27.406Z,39
2023-02-27T11:06:24.368Z,38
2023-02-27T11:07:32.294Z,38
2023-02-27T11:08:28.385Z,39
2023-02-27T11:09:23.626Z,39
2023-02-27T11:10:25.684Z,39
2023-02-27T11:11:23.996Z,39
2023-02-27T11:12:26.800Z,39
2023-02-27T11:13:26.407Z,39
2023-02-27T11:14:32.132Z,40
2023-02-27T11:15:29.669Z,40
2023-02-27T11:16:24.599Z,39
2023-02-27T11:17:20.352Z,39
2023-02-27T11:18:32.175Z,39
2023-02-27T11:19:26.049Z,39
2023-02-27T11:20:23.087Z,38
2023-02-27T11:21:23.280Z,38
2023-02-27T11:22:23.824Z,38
2023-02-27T11:23:29.130Z,38
2023-02-27T11:24:19.997Z,37
2023-02-27T11:25:24.398Z,38
2023-02-27T11:26:27.817Z,37
2023-02-27T11:27:23.574Z,37
2023-02-27T11:28:28.382Z,37
2023-02-27T11:29:28.869Z,37
2023-02-27T11:30:24.461Z,37
2023-02-27T11:31:33.748Z,38
2023-02-27T11:32:26.326Z,38
2023-02-27T11:33:21.192Z,38
2023-02-27T11:34:27.669Z,38
2023-02-27T11:35:31.866Z,38
2023-02-27T11:36:25.162Z,38
2023-02-27T11:37:24.963Z,37
2023-02-27T11:38:23.186Z,37
2023-02-27T11:39:24.449Z,36
2023-02-27T11:40:28.020Z,37
2023-02-27T11:41:29.898Z,37
2023-02-27T11:42:36.015Z,37
2023-02-27T11:43:27.998Z,37
2023-02-27T11:44:38.612Z,37
2023-02-27T11:46:13.609Z,37
2023-02-27T11:46:46.266Z,37
2023-02-27T11:46:48.954Z,36
2023-02-27T11:47:27.840Z,36
2023-02-27T11:48:25.668Z,35
2023-02-27T11:49:32.542Z,36
2023-02-27T11:50:19.983Z,36
2023-02-27T11:51:27.310Z,36
2023-02-27T11:52:20.237Z,36
2023-02-27T11:53:32.137Z,36
2023-02-27T11:54:26.078Z,36
2023-02-27T11:55:24.888Z,36
2023-02-27T11:56:25.055Z,36
2023-02-27T11:57:29.805Z,36
2023-02-27T11:58:24.081Z,36
2023-02-27T11:59:24.947Z,36
2023-02-27T12:00:30.421Z,36
2023-02-27T12:01:26.335Z,36
2023-02-27T12:02:32.159Z,35
2023-02-27T12:03:25.122Z,36
2023-02-27T12:04:28.515Z,36
2023-02-27T12:05:24.490Z,36
2023-02-27T12:06:22.855Z,36
2023-02-27T12:07:23.615Z,35
2023-02-27T12:08:26.531Z,35
2023-02-27T12:09:23.136Z,35
2023-02-27T12:10:28.118Z,35
2023-02-27T12:11:28.856Z,34
2023-02-27T12:12:39.495Z,35
2023-02-27T12:13:21.363Z,35
2023-02-27T12:14:23.976Z,35
2023-02-27T12:15:26.452Z,35
2023-02-27T12:16:26.553Z,35
2023-02-27T12:17:32.605Z,35
2023-02-27T12:18:28.345Z,35
2023-02-27T12:19:24.644Z,35
2023-02-27T12:20:22.307Z,34
2023-02-27T12:21:30.189Z,35
2023-02-27T12:22:26.394Z,35
2023-02-27T12:23:22.118Z,35
2023-02-27T12:24:23.614Z,35
2023-02-27T12:25:24.491Z,34
2023-02-27T12:26:19.637Z,34
2023-02-27T12:27:23.165Z,34
2023-02-27T12:28:33.714Z,34
2023-02-27T12:29:26.312Z,34
2023-02-27T12:30:22.621Z,34
2023-02-27T12:31:32.641Z,34
2023-02-27T12:32:30.423Z,35
2023-02-27T12:33:24.266Z,35
2023-02-27T12:34:34.034Z,35
2023-02-27T12:35:26.116Z,35
2023-02-27T12:36:26.258Z,35
2023-02-27T12:37:22.882Z,35
2023-02-27T12:38:33.143Z,35
2023-02-27T12:39:28.137Z,35
2023-02-27T12:40:24.317Z,34
2023-02-27T12:41:20.023Z,34
2023-02-27T12:42:29.807Z,34
2023-02-27T12:43:26.874Z,34
2023-02-27T12:44:27.610Z,33
2023-02-27T12:45:19.950Z,34
2023-02-27T12:46:30.639Z,34
2023-02-27T12:47:24.209Z,33
2023-02-27T12:48:20.189Z,34
2023-02-27T12:49:30.130Z,34
2023-02-27T12:50:25.886Z,34
2023-02-27T12:51:24.375Z,34
2023-02-27T12:52:24.965Z,33
2023-02-27T12:53:27.743Z,33
2023-02-27T12:54:19.721Z,33
2023-02-27T12:55:25.085Z,33
2023-02-27T12:56:23.415Z,33
2023-02-27T12:57:28.209Z,33
2023-02-27T12:58:29.342Z,33
2023-02-27T12:59:28.235Z,33
2023-02-27T13:00:25.053Z,33
2023-02-27T13:01:23.911Z,34
2023-02-27T13:02:19.900Z,34
2023-02-27T13:03:20.754Z,35
2023-02-27T13:04:28.348Z,35
2023-02-27T13:05:24.742Z,34
2023-02-27T13:06:32.515Z,34
2023-02-27T13:07:26.819Z,35
2023-02-27T13:08:26.979Z,35
2023-02-27T13:09:25.823Z,34
2023-02-27T13:10:30.436Z,34
2023-02-27T13:11:26.877Z,34
2023-02-27T13:12:23.700Z,34
2023-02-27T13:13:32.333Z,34
2023-02-27T13:14:29.506Z,34
2023-02-27T13:15:23.438Z,34
2023-02-27T13:16:20.148Z,34
2023-02-27T13:17:33.565Z,34
2023-02-27T13:18:39.615Z,34
2023-02-27T13:19:24.952Z,34
2023-02-27T13:20:26.953Z,34
2023-02-27T13:21:29.374Z,34
2023-02-27T13:22:27.083Z,33
2023-02-27T13:23:21.198Z,33
2023-02-27T13:24:30.345Z,33
2023-02-27T13:25:26.376Z,34
2023-02-27T13:26:29.105Z,34
2023-02-27T13:27:32.191Z,33
2023-02-27T13:28:28.298Z,33
2023-02-27T13:29:25.994Z,33
2023-02-27T13:30:24.192Z,33
2023-02-27T13:31:31.478Z,33
2023-02-27T13:32:36.488Z,34
2023-02-27T13:33:24.988Z,33
2023-02-27T13:34:20.691Z,33
2023-02-27T13:35:28.320Z,33
2023-02-27T13:36:25.700Z,33
2023-02-27T13:37:20.515Z,32
2023-02-27T13:38:23.390Z,32
2023-02-27T13:39:27.743Z,33
2023-02-27T13:40:23.150Z,33
2023-02-27T13:41:25.315Z,33
2023-02-27T13:42:28.322Z,33
2023-02-27T13:43:24.903Z,34
2023-02-27T13:44:22.461Z,34
2023-02-27T13:45:25.262Z,34
2023-02-27T13:46:27.639Z,34
2023-02-27T13:47:35.539Z,34
2023-02-27T13:48:24.382Z,34
2023-02-27T13:49:29.363Z,35
2023-02-27T13:50:24.352Z,34
2023-02-27T13:51:24.187Z,34
2023-02-27T13:52:30.486Z,34
2023-02-27T13:53:24.101Z,34
2023-02-27T13:54:27.232Z,33
2023-02-27T13:55:26.246Z,33
2023-02-27T13:56:25.303Z,34
2023-02-27T13:57:26.615Z,34
2023-02-27T13:58:22.134Z,34
2023-02-27T13:59:24.041Z,34
2023-02-27T14:00:28.138Z,34
2023-02-27T14:01:19.901Z,34
2023-02-27T14:02:30.264Z,34
2023-02-27T14:03:30.528Z,33
2023-02-27T14:04:24.706Z,33
2023-02-27T14:05:23.210Z,33
2023-02-27T14:06:25.510Z,33
2023-02-27T14:07:26.066Z,32
2023-02-27T14:08:36.394Z,33
2023-02-27T14:09:40.382Z,33
2023-02-27T14:10:28.951Z,33
2023-02-27T14:11:28.213Z,33
2023-02-27T14:12:21.577Z,33
2023-02-27T14:13:27.836Z,33
2023-02-27T14:14:26.082Z,33
2023-02-27T14:15:30.596Z,33
2023-02-27T14:16:23.159Z,33
2023-02-27T14:17:29.016Z,34
2023-02-27T14:18:33.641Z,34
2023-02-27T14:19:24.027Z,34
2023-02-27T14:20:48.613Z,34
2023-02-27T14:22:26.112Z,33
2023-02-27T14:23:27.752Z,34
2023-02-27T14:24:25.289Z,33
2023-02-27T14:25:24.247Z,33
2023-02-27T14:26:20.271Z,33
2023-02-27T14:27:20.577Z,33
2023-02-27T14:28:20.281Z,34
2023-02-27T14:29:24.641Z,33
2023-02-27T14:30:34.749Z,34
2023-02-27T14:31:23.918Z,34
2023-02-27T14:32:24.598Z,34
2023-02-27T14:33:39.273Z,34
2023-02-27T14:34:25.224Z,34
2023-02-27T14:35:27.230Z,34
2023-02-27T14:36:24.742Z,34
2023-02-27T14:37:34.375Z,34
2023-02-27T14:38:28.048Z,34
2023-02-27T14:39:21.565Z,34
2023-02-27T14:40:29.321Z,34
2023-02-27T14:41:30.399Z,35
2023-02-27T14:42:25.484Z,35
2023-02-27T14:43:22.105Z,35
2023-02-27T14:44:32.980Z,36
2023-02-27T14:45:27.979Z,36
2023-02-27T14:46:24.474Z,36
2023-02-27T14:47:23.358Z,36
2023-02-27T14:48:34.399Z,36
2023-02-27T14:49:27.146Z,36
2023-02-27T14:50:23.972Z,36
2023-02-27T14:51:34.125Z,36
2023-02-27T14:52:28.303Z,36
2023-02-27T14:53:25.978Z,36
2023-02-27T14:54:23.703Z,36
2023-02-27T14:55:30.714Z,36
2023-02-27T14:56:33.967Z,36
2023-02-27T14:57:24.188Z,36
2023-02-27T14:58:32.098Z,35
2023-02-27T14:59:29.765Z,35
2023-02-27T15:00:24.303Z,36
2023-02-27T15:01:26.393Z,37
2023-02-27T15:02:30.108Z,36
2023-02-27T15:03:26.233Z,37
2023-02-27T15:04:26.590Z,37
2023-02-27T15:05:35.172Z,37
2023-02-27T15:06:28.654Z,37
2023-02-27T15:07:27.521Z,36
2023-02-27T15:08:22.150Z,36
2023-02-27T15:09:23.279Z,36